Pregled zadnjih 96 podatkov za postajo Borovnica (27469)

Čas Temperatura (2 m) (°C)  Relativna zračna vlaga (1,5 m) (%RH)  Padavine (mm)  Omočenost lista (U)  Hitrost vetra (2 m) (km/h) 
27.2.2021 4:30 -1,7 99 0 2 2
27.2.2021 4:00 -1 99 0 3 2
27.2.2021 3:30 -0,8 99 0 9 2
27.2.2021 3:00 -0,5 99 0 10 2
27.2.2021 2:30 -0,4 98 0 10 1
27.2.2021 2:00 0 98 0 10 1
27.2.2021 1:30 0,1 98 0 10 2
27.2.2021 1:00 0,8 97 0 10 2
27.2.2021 0:30 0,8 96 0 10 0
27.2.2 1 94 0 10 1
26.2.2021 23:30 2,2 93 0 10 3
26.2.2021 23:00 2,2 93 0 10 2
26.2.2021 22:30 2,8 91 0 10 2
26.2.2021 22:00 3,8 87 0 9 2
26.2.2021 21:30 4,8 86 0 8 2
26.2.2021 21:00 4,4 86 0 7 2
26.2.2021 20:30 6 79 0 1 1
26.2.2021 20:00 7,3 75 0 0 1
26.2.2021 19:30 9,1 69 0 0 2
26.2.2021 19:00 10,1 66 0 0 4
26.2.2021 18:30 11,2 61 0 0 5
26.2.2021 18:00 12,5 57 0 0 5
26.2.2021 17:30 14,6 51 0 0 5
26.2.2021 17:00 17,9 47 0 0 3
26.2.2021 16:30 20,6 39 0 0 3
26.2.2021 16:00 20,7 37 0 0 4
26.2.2021 15:30 20,6 37 0 0 4
26.2.2021 15:00 20,4 38 0 0 3
26.2.2021 14:30 20 39 0 0 2
26.2.2021 14:00 18,8 42 0 0 3
26.2.2021 13:30 17,5 45 0 0 3
26.2.2021 13:00 16,4 48 0 0 4
26.2.2021 12:30 14,9 52 0 0 4
26.2.2021 12:00 13,5 56 0 0 4
26.2.2021 11:30 12,2 60 0 0 4
26.2.2021 11:00 10,8 64 0 0 3
26.2.2021 10:30 9,1 71 0 0 3
26.2.2021 10:00 7,2 79 0 0 2
26.2.2021 9:30 5 94 0 0 2
26.2.2021 9:00 3,3 100 0 6 1
26.2.2021 8:30 0,2 100 0 10 0
26.2.2021 8:00 -2,3 100 0 2 0
26.2.2021 7:30 -3,3 100 0 0 1
26.2.2021 7:00 -3,7 100 0 0 1
26.2.2021 6:30 -3,5 100 0 0 1
26.2.2021 6:00 -3,1 100 0 0 2
26.2.2021 5:30 -2,7 100 0 1 2
26.2.2021 5:00 -2,8 100 0 1 2
26.2.2021 4:30 -2,5 100 0 1 2
26.2.2021 4:00 -2 100 0 1 1
26.2.2021 3:30 -2,1 99 0 2 2
26.2.2021 3:00 -1,1 99 0 5 1
26.2.2021 2:30 -1 99 0 10 1
26.2.2021 2:00 -0,6 99 0 10 1
26.2.2021 1:30 -0,2 98 0 10 2
26.2.2021 1:00 0 98 0 10 1
26.2.2021 0:30 0,4 97 0 10 2
26.2.2 0,6 96 0 10 1
25.2.2021 23:30 1,4 96 0 10 1
25.2.2021 23:00 1,2 94 0 10 2
25.2.2021 22:30 2,2 92 0 10 2
25.2.2021 22:00 2,9 89 0 9 1
25.2.2021 21:30 3,3 89 0 7 2
25.2.2021 21:00 4,4 84 0 3 3
25.2.2021 20:30 5,9 79 0 0 2
25.2.2021 20:00 6,4 77 0 0 3
25.2.2021 19:30 8 73 0 0 2
25.2.2021 19:00 9,8 68 0 0 2
25.2.2021 18:30 10,3 68 0 0 3
25.2.2021 18:00 12 63 0 0 4
25.2.2021 17:30 14 56 0 0 4
25.2.2021 17:00 16,9 50 0 0 3
25.2.2021 16:30 19,4 41 0 0 3
25.2.2021 16:00 20,2 35 0 0 2
25.2.2021 15:30 19,8 34 0 0 1
25.2.2021 15:00 19,2 36 0 0 3
25.2.2021 14:30 19 36 0 0 2
25.2.2021 14:00 18 39 0 0 4
25.2.2021 13:30 17,3 42 0 0 3
25.2.2021 13:00 16,1 44 0 0 3
25.2.2021 12:30 15 49 0 0 2
25.2.2021 12:00 13,5 52 0 0 3
25.2.2021 11:30 12,6 59 0 0 3
25.2.2021 11:00 10,7 66 0 0 2
25.2.2021 10:30 9,3 71 0 0 2
25.2.2021 10:00 7,6 75 0 0 3
25.2.2021 9:30 5,7 83 0 0 2
25.2.2021 9:00 3,2 100 0 9 1
25.2.2021 8:30 0,9 100 0 10 1
25.2.2021 8:00 -1,3 100 0 4 0
25.2.2021 7:30 -2,3 100 0 1 2
25.2.2021 7:00 -1,8 100 0 1 2
25.2.2021 6:30 -1,7 100 0 1 1
25.2.2021 6:00 -1,7 100 0 2 2
25.2.2021 5:30 -1 100 0 2 1
25.2.2021 5:00 -1,4 99 0 2 1